Time;durP1;ratioP1;P1;durP2;ratioP2;P2;SDS_P1;SDS_P2;PMS_P1;PMS_P2;Temp;Humidity;BMP_temperature;BMP_pressure;BME280_temperature;BME280_humidity;BME280_pressure;Samples;Min_cycle;Max_cycle;Signal;HPM_P1;HPM_P2
2023/01/07 00:02:10;;;;;;;;;;;11.10;88.30;;;;;;4986262;28;20008;-80
2023/01/07 00:04:35;;;;;;;;;;;11.10;88.60;;;;;;5000376;28;19959;-81
2023/01/07 00:07:01;;;;;;;;;;;11.10;88.60;;;;;;4984619;28;19914;-80
2023/01/07 00:09:26;;;;;;;;;;;11.00;88.50;;;;;;5027019;28;19912;-80
2023/01/07 00:11:52;;;;;;;;;;;11.10;88.30;;;;;;5002235;28;19925;-81
2023/01/07 00:14:17;;;;;;;;;;;11.10;88.20;;;;;;5019652;28;19941;-80
2023/01/07 00:16:43;;;;;;;;;;;11.10;88.40;;;;;;5004723;28;19929;-79
2023/01/07 00:19:11;;;;;;;;;;;11.00;88.50;;;;;;4998467;28;20060;-82
2023/01/07 00:21:36;;;;;;;;;;;11.00;88.40;;;;;;5007747;28;19920;-82
2023/01/07 00:24:03;;;;;;;;;;;11.00;88.40;;;;;;5006935;28;19917;-80
2023/01/07 00:26:30;;;;;;;;;;;11.10;88.30;;;;;;4989455;28;19917;-82
2023/01/07 00:28:56;;;;;;;;;;;11.10;87.90;;;;;;4994564;28;19918;-80
2023/01/07 00:31:26;;;;;;;;;;;11.20;87.70;;;;;;4988166;28;20004;-80
2023/01/07 00:36:20;;;;;;;;;;;11.10;87.90;;;;;;5009116;28;19953;-82
2023/01/07 00:38:46;;;;;;;;;;;11.10;87.80;;;;;;5003099;28;19977;-80
2023/01/07 00:41:12;;;;;;;;;;;11.00;87.90;;;;;;4985050;28;20029;-81
2023/01/07 00:43:37;;;;;;;;;;;11.10;87.80;;;;;;5002743;28;19918;-82
2023/01/07 00:46:03;;;;;;;;;;;11.10;87.60;;;;;;4984865;28;20279;-80
2023/01/07 00:48:28;;;;;;;;;;;11.10;87.60;;;;;;4991766;28;19925;-82
2023/01/07 00:50:54;;;;;;;;;;;11.10;87.60;;;;;;4998640;28;19918;-80
2023/01/07 00:53:19;;;;;;;;;;;11.10;87.60;;;;;;5024332;28;20024;-80
2023/01/07 00:55:46;;;;;;;;;;;11.00;87.90;;;;;;5000047;28;19924;-80
2023/01/07 00:58:19;;;;;;;;;;;11.10;87.70;;;;;;5003315;28;20330;-82
2023/01/07 01:00:45;;;;;;;;;;;11.00;87.60;;;;;;5002031;28;19918;-81
2023/01/07 01:03:11;;;;;;;;;;;11.10;87.30;;;;;;4985883;28;19918;-82
2023/01/07 01:05:36;;;;;;;;;;;11.10;87.30;;;;;;4986795;28;19975;-82
2023/01/07 01:08:02;;;;;;;;;;;11.10;87.40;;;;;;5002027;28;20005;-81
2023/01/07 01:10:27;;;;;;;;;;;11.10;87.40;;;;;;4996120;28;19992;-80
2023/01/07 01:12:53;;;;;;;;;;;11.10;87.10;;;;;;4983118;28;20397;-82
2023/01/07 01:15:18;;;;;;;;;;;11.10;87.00;;;;;;4983076;28;19917;-81
2023/01/07 01:17:44;;;;;;;;;;;11.10;87.10;;;;;;5011726;28;19925;-82
2023/01/07 01:20:11;;;;;;;;;;;11.10;86.90;;;;;;4999877;28;19917;-80
2023/01/07 01:22:36;;;;;;;;;;;11.10;86.80;;;;;;5015423;28;19984;-82
2023/01/07 01:25:02;;;;;;;;;;;11.10;87.00;;;;;;5000736;28;20393;-81
2023/01/07 01:27:30;;;;;;;;;;;11.10;87.10;;;;;;4999425;28;19953;-83
2023/01/07 01:29:56;;;;;;;;;;;11.10;87.00;;;;;;4986237;28;19917;-81
2023/01/07 01:32:22;;;;;;;;;;;11.10;86.90;;;;;;4992810;28;19924;-79
2023/01/07 01:34:47;;;;;;;;;;;11.10;86.80;;;;;;4999178;28;19939;-82
2023/01/07 01:37:13;;;;;;;;;;;11.10;86.70;;;;;;5004517;28;20001;-82
2023/01/07 01:39:38;;;;;;;;;;;11.10;86.80;;;;;;5001221;28;19918;-78
2023/01/07 01:42:04;;;;;;;;;;;11.00;87.00;;;;;;5007147;28;19964;-77
2023/01/07 01:44:42;;;;;;;;;;;11.00;87.10;;;;;;4984270;28;20406;-78
2023/01/07 01:47:17;;;;;;;;;;;11.00;87.30;;;;;;5024053;28;20035;-78
2023/01/07 01:49:46;;;;;;;;;;;11.00;87.10;;;;;;5002567;28;19989;-78
2023/01/07 01:52:13;;;;;;;;;;;11.10;86.70;;;;;;5006859;28;19999;-76
2023/01/07 01:54:40;;;;;;;;;;;11.10;86.90;;;;;;4998750;28;19942;-77
2023/01/07 01:57:07;;;;;;;;;;;11.10;87.00;;;;;;5013465;28;19909;-77
2023/01/07 01:59:34;;;;;;;;;;;11.10;86.70;;;;;;4983464;28;19914;-76
2023/01/07 02:02:00;;;;;;;;;;;11.10;86.70;;;;;;4995750;28;20419;-75
2023/01/07 02:04:26;;;;;;;;;;;11.10;86.70;;;;;;4995178;28;19917;-77
2023/01/07 02:07:03;;;;;;;;;;;11.10;86.70;;;;;;5012952;28;19913;-77
2023/01/07 02:09:28;;;;;;;;;;;11.10;86.30;;;;;;5006286;28;19929;-77
2023/01/07 02:12:00;;;;;;;;;;;11.20;86.40;;;;;;4987480;28;19918;-77
2023/01/07 02:14:33;;;;;;;;;;;11.20;86.00;;;;;;5011065;28;19921;-75
2023/01/07 02:17:11;;;;;;;;;;;11.10;86.20;;;;;;5011894;28;20012;-77
2023/01/07 02:20:04;;;;;;;;;;;11.20;86.10;;;;;;4980109;28;19972;-77
2023/01/07 02:22:33;;;;;;;;;;;11.10;86.40;;;;;;5028748;28;19921;-76
2023/01/07 02:25:01;;;;;;;;;;;11.20;86.20;;;;;;5004290;28;19921;-77
2023/01/07 02:27:29;;;;;;;;;;;11.20;86.10;;;;;;5009278;28;19914;-77
2023/01/07 02:30:01;;;;;;;;;;;11.20;85.90;;;;;;5008191;28;19921;-77
2023/01/07 02:32:41;;;;;;;;;;;11.10;86.10;;;;;;4992077;28;19963;-77
2023/01/07 02:35:14;;;;;;;;;;;11.10;85.80;;;;;;4998825;28;19914;-77
2023/01/07 02:37:47;;;;;;;;;;;11.10;86.10;;;;;;5030962;28;19919;-78
2023/01/07 02:40:12;;;;;;;;;;;11.00;86.30;;;;;;5011631;28;19925;-76
2023/01/07 02:42:44;;;;;;;;;;;11.10;86.20;;;;;;5000159;28;20440;-78
2023/01/07 02:45:12;;;;;;;;;;;11.10;86.00;;;;;;5016809;28;20000;-78
2023/01/07 02:47:44;;;;;;;;;;;11.10;86.30;;;;;;5017696;28;20340;-77
2023/01/07 02:50:09;;;;;;;;;;;11.10;86.10;;;;;;5002189;28;20369;-77
2023/01/07 02:52:35;;;;;;;;;;;11.10;86.10;;;;;;5020978;28;19963;-76
2023/01/07 02:55:07;;;;;;;;;;;11.10;86.00;;;;;;5005128;28;19968;-78
2023/01/07 02:57:35;;;;;;;;;;;11.10;86.00;;;;;;5013095;28;19967;-77
2023/01/07 03:00:07;;;;;;;;;;;11.10;85.90;;;;;;4993889;28;19952;-75
2023/01/07 03:02:42;;;;;;;;;;;11.20;86.00;;;;;;5002177;28;19940;-77
2023/01/07 03:05:17;;;;;;;;;;;11.10;85.90;;;;;;4985915;28;19909;-76
2023/01/07 03:08:01;;;;;;;;;;;11.00;86.00;;;;;;4989752;28;20098;-78
2023/01/07 03:10:38;;;;;;;;;;;11.00;86.00;;;;;;5022701;28;19956;-77
2023/01/07 03:13:11;;;;;;;;;;;11.00;86.40;;;;;;5008430;28;19921;-78
2023/01/07 03:15:42;;;;;;;;;;;11.00;85.90;;;;;;5015572;28;19913;-79
2023/01/07 03:18:10;;;;;;;;;;;11.00;86.40;;;;;;4996577;28;19921;-79
2023/01/07 03:20:37;;;;;;;;;;;10.90;86.50;;;;;;4997960;28;20293;-79
2023/01/07 03:23:05;;;;;;;;;;;11.00;86.30;;;;;;4997330;28;19914;-79
2023/01/07 03:25:31;;;;;;;;;;;11.00;86.50;;;;;;5013657;28;19922;-79
2023/01/07 03:27:58;;;;;;;;;;;10.90;86.50;;;;;;4990232;28;19914;-79
2023/01/07 03:30:24;;;;;;;;;;;11.00;86.60;;;;;;4999476;28;20440;-78
2023/01/07 03:33:06;;;;;;;;;;;10.90;86.40;;;;;;5015774;28;19914;-78
2023/01/07 03:35:32;;;;;;;;;;;10.90;86.80;;;;;;4991113;28;19918;-78
2023/01/07 03:37:59;;;;;;;;;;;10.90;86.30;;;;;;4978883;28;19918;-79
2023/01/07 03:40:25;;;;;;;;;;;10.90;86.40;;;;;;5000621;28;19922;-79
2023/01/07 03:42:52;;;;;;;;;;;10.80;86.30;;;;;;5007100;28;19945;-79
2023/01/07 03:45:19;;;;;;;;;;;10.80;86.40;;;;;;5024917;22;19928;-86
2023/01/07 03:47:46;;;;;;;;;;;10.80;86.20;;;;;;5023710;28;19913;-86
2023/01/07 03:50:12;;;;;;;;;;;10.80;86.20;;;;;;5001683;28;19928;-85
2023/01/07 03:52:37;;;;;;;;;;;10.90;86.10;;;;;;5019389;28;20293;-86
2023/01/07 03:55:03;;;;;;;;;;;10.90;85.70;;;;;;5000918;28;19921;-88
2023/01/07 03:57:29;;;;;;;;;;;10.90;85.90;;;;;;5022814;28;19948;-87
2023/01/07 03:59:55;;;;;;;;;;;10.90;85.70;;;;;;5033568;28;20419;-86
2023/01/07 04:02:20;;;;;;;;;;;10.80;85.80;;;;;;5023999;28;19913;-86
2023/01/07 04:04:48;;;;;;;;;;;10.90;85.70;;;;;;5000836;28;21559;-87
2023/01/07 04:07:13;;;;;;;;;;;11.00;85.80;;;;;;5006436;28;19913;-86
2023/01/07 04:09:39;;;;;;;;;;;10.90;85.60;;;;;;5022331;28;19920;-85
2023/01/07 04:12:04;;;;;;;;;;;11.00;85.50;;;;;;5001455;28;19917;-85
2023/01/07 04:14:30;;;;;;;;;;;11.00;85.10;;;;;;5021723;28;19940;-86
2023/01/07 04:16:55;;;;;;;;;;;10.90;85.60;;;;;;5023838;28;20356;-86
2023/01/07 04:19:21;;;;;;;;;;;10.90;85.30;;;;;;4996571;28;20369;-86
2023/01/07 04:21:46;;;;;;;;;;;10.80;85.70;;;;;;4995781;28;20400;-85
2023/01/07 04:24:12;;;;;;;;;;;10.90;85.50;;;;;;5002758;28;19975;-86
2023/01/07 04:26:37;;;;;;;;;;;10.90;85.30;;;;;;5004590;28;19913;-86
2023/01/07 04:29:03;;;;;;;;;;;10.80;85.20;;;;;;5003229;28;19995;-86
2023/01/07 04:31:28;;;;;;;;;;;10.70;85.50;;;;;;5019237;28;19912;-86
2023/01/07 04:33:53;;;;;;;;;;;10.60;85.60;;;;;;5025377;28;20388;-86
2023/01/07 04:36:19;;;;;;;;;;;10.60;85.70;;;;;;4995478;28;19920;-85
2023/01/07 04:38:44;;;;;;;;;;;10.60;85.60;;;;;;5005203;28;19917;-86
2023/01/07 04:41:10;;;;;;;;;;;10.60;85.60;;;;;;5003661;28;19913;-85
2023/01/07 04:43:35;;;;;;;;;;;10.60;85.60;;;;;;5024130;28;20036;-85
2023/01/07 04:46:01;;;;;;;;;;;10.50;85.60;;;;;;5002433;28;19925;-85
2023/01/07 04:48:27;;;;;;;;;;;10.60;85.50;;;;;;5011199;28;19936;-85
2023/01/07 04:50:53;;;;;;;;;;;10.50;85.30;;;;;;5008032;28;19925;-85
2023/01/07 04:53:18;;;;;;;;;;;10.50;85.60;;;;;;5005452;28;20269;-84
2023/01/07 04:55:44;;;;;;;;;;;10.40;85.90;;;;;;5021024;28;19914;-85
2023/01/07 04:58:09;;;;;;;;;;;10.40;85.90;;;;;;5024308;28;19917;-85
2023/01/07 05:00:34;;;;;;;;;;;10.50;85.70;;;;;;5008169;28;19913;-84
2023/01/07 05:03:00;;;;;;;;;;;10.40;85.70;;;;;;5015993;28;19917;-84
2023/01/07 05:05:25;;;;;;;;;;;10.40;85.80;;;;;;5030931;28;19921;-84
2023/01/07 05:07:51;;;;;;;;;;;10.30;86.10;;;;;;5029603;28;19932;-85
2023/01/07 05:10:16;;;;;;;;;;;10.30;86.00;;;;;;5017454;28;19913;-84
2023/01/07 05:12:42;;;;;;;;;;;10.30;85.90;;;;;;5009053;28;20029;-85
2023/01/07 05:15:08;;;;;;;;;;;10.30;86.10;;;;;;4997451;28;19944;-86
2023/01/07 05:17:34;;;;;;;;;;;10.30;86.20;;;;;;5026178;28;19949;-85
2023/01/07 05:19:59;;;;;;;;;;;10.30;86.10;;;;;;5015177;28;19920;-86
2023/01/07 05:22:25;;;;;;;;;;;10.20;86.10;;;;;;5009104;28;19921;-86
2023/01/07 05:24:50;;;;;;;;;;;10.20;86.20;;;;;;5011559;28;19923;-85
2023/01/07 05:27:16;;;;;;;;;;;10.20;86.10;;;;;;5008674;28;19927;-87
2023/01/07 05:29:41;;;;;;;;;;;10.20;86.20;;;;;;5005305;28;19969;-85
2023/01/07 05:32:07;;;;;;;;;;;10.10;86.20;;;;;;5008067;28;19913;-84
2023/01/07 05:34:32;;;;;;;;;;;10.20;86.30;;;;;;5025421;28;20402;-85
2023/01/07 05:36:58;;;;;;;;;;;10.20;86.00;;;;;;5027799;28;19936;-86
2023/01/07 05:39:23;;;;;;;;;;;10.20;85.90;;;;;;5025115;28;19913;-84
2023/01/07 05:41:48;;;;;;;;;;;10.20;85.90;;;;;;5003756;28;19913;-85
2023/01/07 05:44:14;;;;;;;;;;;10.10;86.10;;;;;;5001639;28;19956;-85
2023/01/07 05:46:39;;;;;;;;;;;10.20;85.90;;;;;;5006172;28;19929;-85
2023/01/07 05:49:05;;;;;;;;;;;10.10;85.80;;;;;;5009738;28;20423;-84
2023/01/07 05:51:30;;;;;;;;;;;10.10;86.10;;;;;;5010516;28;20393;-85
2023/01/07 05:53:56;;;;;;;;;;;10.10;86.00;;;;;;5046091;28;20474;-86
2023/01/07 05:56:21;;;;;;;;;;;10.10;86.10;;;;;;5044547;28;19921;-85
2023/01/07 05:58:47;;;;;;;;;;;10.20;85.70;;;;;;5016912;28;19913;-85
2023/01/07 06:01:12;;;;;;;;;;;10.10;85.90;;;;;;5034685;28;19927;-85
2023/01/07 06:03:38;;;;;;;;;;;10.30;85.70;;;;;;5032102;28;19967;-85
2023/01/07 06:06:06;;;;;;;;;;;10.20;85.50;;;;;;5015900;28;20008;-85
2023/01/07 06:08:33;;;;;;;;;;;10.10;85.60;;;;;;5013930;28;19913;-86
2023/01/07 06:10:58;;;;;;;;;;;10.10;85.60;;;;;;5059442;28;19946;-87
2023/01/07 06:13:24;;;;;;;;;;;10.10;85.30;;;;;;5030652;28;19897;-85
2023/01/07 06:15:49;;;;;;;;;;;10.10;85.50;;;;;;5032553;28;20423;-86
2023/01/07 06:18:15;;;;;;;;;;;10.10;85.50;;;;;;5021018;28;20283;-85
2023/01/07 06:20:40;;;;;;;;;;;10.20;85.30;;;;;;5018305;28;19913;-85
2023/01/07 06:23:06;;;;;;;;;;;10.20;84.70;;;;;;5020927;28;19917;-85
2023/01/07 06:25:31;;;;;;;;;;;10.10;85.30;;;;;;5027982;28;19924;-85
2023/01/07 06:27:57;;;;;;;;;;;10.10;85.40;;;;;;5009702;28;20621;-85
2023/01/07 06:30:22;;;;;;;;;;;10.10;85.40;;;;;;5026851;28;19960;-85
2023/01/07 06:32:48;;;;;;;;;;;10.20;85.10;;;;;;5007428;28;20274;-85
2023/01/07 06:35:13;;;;;;;;;;;10.10;85.20;;;;;;5022387;28;19913;-84
2023/01/07 06:37:39;;;;;;;;;;;10.30;84.90;;;;;;5014780;28;20657;-85
2023/01/07 06:40:05;;;;;;;;;;;10.20;84.90;;;;;;5010358;28;19960;-85
2023/01/07 06:42:30;;;;;;;;;;;10.20;85.10;;;;;;5026844;28;19913;-86
2023/01/07 06:44:56;;;;;;;;;;;10.10;85.10;;;;;;5035312;28;20621;-85
2023/01/07 06:47:21;;;;;;;;;;;10.30;84.90;;;;;;5006731;28;19921;-86
2023/01/07 06:49:47;;;;;;;;;;;10.30;84.80;;;;;;5025190;28;20022;-84
2023/01/07 06:52:12;;;;;;;;;;;10.30;84.80;;;;;;5019732;28;19920;-84
2023/01/07 06:54:38;;;;;;;;;;;10.30;84.40;;;;;;5017487;28;19913;-84
2023/01/07 06:57:03;;;;;;;;;;;10.40;84.50;;;;;;5029953;28;20177;-84
2023/01/07 06:59:29;;;;;;;;;;;10.40;84.40;;;;;;5004489;28;19921;-85
2023/01/07 07:01:54;;;;;;;;;;;10.60;84.10;;;;;;5019835;28;20143;-84
2023/01/07 07:04:20;;;;;;;;;;;10.50;84.00;;;;;;5021625;28;19927;-85
2023/01/07 07:06:46;;;;;;;;;;;10.50;84.30;;;;;;5018818;28;20403;-84
2023/01/07 07:09:11;;;;;;;;;;;10.40;84.30;;;;;;5025874;28;19913;-84
2023/01/07 07:11:37;;;;;;;;;;;10.40;84.40;;;;;;5010387;28;19913;-84
2023/01/07 07:14:03;;;;;;;;;;;10.50;84.00;;;;;;5017232;28;19913;-84
2023/01/07 07:16:28;;;;;;;;;;;10.50;84.00;;;;;;5031629;28;20012;-83
2023/01/07 07:18:54;;;;;;;;;;;10.50;84.00;;;;;;5004206;28;20311;-84
2023/01/07 07:21:19;;;;;;;;;;;10.50;84.10;;;;;;5029692;28;20297;-86
2023/01/07 07:23:45;;;;;;;;;;;10.50;83.90;;;;;;5024297;28;19925;-86
2023/01/07 07:26:10;;;;;;;;;;;10.60;83.40;;;;;;5008262;28;19913;-85
2023/01/07 07:28:36;;;;;;;;;;;10.50;83.30;;;;;;5017325;28;19914;-85
2023/01/07 07:31:02;;;;;;;;;;;10.60;83.10;;;;;;5026756;28;19928;-84
2023/01/07 07:33:27;;;;;;;;;;;10.50;83.10;;;;;;5010947;28;19912;-84
2023/01/07 07:35:54;;;;;;;;;;;10.50;83.40;;;;;;5006054;28;19957;-85
2023/01/07 07:38:20;;;;;;;;;;;10.60;83.30;;;;;;5006371;28;20003;-85
2023/01/07 07:40:45;;;;;;;;;;;10.50;83.20;;;;;;5009582;28;19917;-84
2023/01/07 07:43:11;;;;;;;;;;;10.50;83.00;;;;;;5025482;28;19963;-85
2023/01/07 07:45:37;;;;;;;;;;;10.50;83.20;;;;;;5000208;28;19921;-84
2023/01/07 07:48:04;;;;;;;;;;;10.60;83.40;;;;;;5008751;28;19925;-83
2023/01/07 07:50:29;;;;;;;;;;;10.70;82.20;;;;;;5006932;28;20027;-83
2023/01/07 07:52:55;;;;;;;;;;;10.70;82.30;;;;;;5005688;28;20317;-84
2023/01/07 07:55:20;;;;;;;;;;;10.70;81.80;;;;;;5022401;28;19921;-83
2023/01/07 07:57:46;;;;;;;;;;;10.80;81.50;;;;;;5002660;28;20439;-83
2023/01/07 08:00:12;;;;;;;;;;;10.80;81.30;;;;;;5003661;28;19948;-84
2023/01/07 08:02:37;;;;;;;;;;;10.80;81.30;;;;;;5019269;28;20480;-80
2023/01/07 08:05:03;;;;;;;;;;;10.90;81.20;;;;;;5006816;28;19918;-83
2023/01/07 08:07:28;;;;;;;;;;;10.90;81.00;;;;;;5012939;28;20357;-80
2023/01/07 08:09:54;;;;;;;;;;;10.80;81.30;;;;;;5018817;22;19934;-87
2023/01/07 08:12:19;;;;;;;;;;;10.70;81.70;;;;;;5009696;28;19913;-88
2023/01/07 08:14:44;;;;;;;;;;;10.80;82.20;;;;;;5004848;28;19917;-87
2023/01/07 08:17:10;;;;;;;;;;;10.70;81.10;;;;;;5003111;28;19914;-88
2023/01/07 08:19:36;;;;;;;;;;;10.70;81.40;;;;;;4992287;28;19914;-86
2023/01/07 08:22:01;;;;;;;;;;;10.70;81.50;;;;;;5010583;28;20441;-88
2023/01/07 08:24:26;;;;;;;;;;;10.80;81.10;;;;;;4984519;28;20454;-87
2023/01/07 08:26:54;;;;;;;;;;;10.80;81.00;;;;;;4984843;28;19921;-87
2023/01/07 08:29:20;;;;;;;;;;;10.90;80.90;;;;;;5005357;28;19913;-89
2023/01/07 08:31:46;;;;;;;;;;;10.80;81.00;;;;;;4995082;28;20008;-86
2023/01/07 08:34:11;;;;;;;;;;;10.90;80.60;;;;;;4998484;28;19960;-86
2023/01/07 08:36:37;;;;;;;;;;;10.80;80.10;;;;;;5001997;28;19921;-87
2023/01/07 08:39:02;;;;;;;;;;;10.80;80.10;;;;;;5021785;28;19921;-86
2023/01/07 08:41:28;;;;;;;;;;;10.90;79.70;;;;;;5006913;28;19921;-87
2023/01/07 08:43:53;;;;;;;;;;;10.90;79.70;;;;;;4996562;28;19992;-88
2023/01/07 08:46:19;;;;;;;;;;;11.10;79.00;;;;;;4996055;28;19919;-88
2023/01/07 08:48:44;;;;;;;;;;;11.00;78.90;;;;;;4995014;28;19914;-87
2023/01/07 08:51:10;;;;;;;;;;;11.00;79.00;;;;;;4995563;28;19914;-87
2023/01/07 08:53:35;;;;;;;;;;;11.10;77.90;;;;;;4991678;28;19948;-86
2023/01/07 08:56:05;;;;;;;;;;;11.10;78.10;;;;;;4997943;28;19964;-88
2023/01/07 08:58:30;;;;;;;;;;;11.00;78.10;;;;;;5000719;28;19921;-88
2023/01/07 09:01:04;;;;;;;;;;;11.10;77.80;;;;;;5000977;28;19947;-88
2023/01/07 09:03:29;;;;;;;;;;;11.10;77.90;;;;;;4989337;28;19913;-88
2023/01/07 09:05:55;;;;;;;;;;;11.00;77.20;;;;;;4984691;28;19965;-91
2023/01/07 09:08:28;;;;;;;;;;;11.00;77.30;;;;;;4978114;28;20395;-91
2023/01/07 09:10:53;;;;;;;;;;;11.00;78.00;;;;;;4991654;28;19926;-90
2023/01/07 09:13:46;;;;;;;;;;;11.00;77.80;;;;;;5003043;28;20052;-92
2023/01/07 09:16:14;;;;;;;;;;;11.10;77.70;;;;;;4998335;28;19914;-93
2023/01/07 09:21:57;;;;;;;;;;;11.00;77.90;;;;;;4947872;28;19922;-92
2023/01/07 09:24:35;;;;;;;;;;;11.00;78.40;;;;;;5011742;28;19925;-93
2023/01/07 09:27:02;;;;;;;;;;;11.10;78.00;;;;;;5008150;28;19928;-93
2023/01/07 09:29:49;;;;;;;;;;;;;;;;;;;;;
2023/01/07 09:32:44;;;;;;;;;;;11.20;77.50;;;;;;5007731;28;19913;-94
2023/01/07 09:35:30;;;;;;;;;;;11.20;78.10;;;;;;4989107;28;19921;-93
2023/01/07 09:38:20;;;;;;;;;;;11.20;78.30;;;;;;4995455;28;19917;-94
2023/01/07 09:44:00;;;;;;;;;;;;;;;;;;;;;
2023/01/07 09:46:38;;;;;;;;;;;11.40;77.40;;;;;;4952933;29;19934;-92
2023/01/07 09:49:15;;;;;;;;;;;11.40;77.90;;;;;;4944227;29;19958;-88
2023/01/07 09:54:36;;;;;;;;;;;11.20;78.20;;;;;;5074453;23;19924;-85
2023/01/07 09:57:02;;;;;;;;;;;11.10;78.60;;;;;;5061360;28;19928;-84
2023/01/07 09:59:28;;;;;;;;;;;11.20;78.10;;;;;;5064314;28;19967;-82
2023/01/07 10:02:13;;;;;;;;;;;11.20;78.40;;;;;;5034041;28;19920;-84
2023/01/07 10:04:49;;;;;;;;;;;11.10;78.80;;;;;;5028240;28;19974;-84
2023/01/07 10:07:22;;;;;;;;;;;11.10;79.00;;;;;;5035114;28;20019;-83
2023/01/07 10:09:59;;;;;;;;;;;11.20;78.90;;;;;;5046662;28;21801;-83
2023/01/07 10:12:33;;;;;;;;;;;11.20;78.90;;;;;;5026791;28;19924;-84
2023/01/07 10:15:18;;;;;;;;;;;11.30;78.90;;;;;;5060494;28;19901;-82
2023/01/07 10:17:55;;;;;;;;;;;11.40;78.00;;;;;;5059980;28;19921;-83
2023/01/07 10:20:26;;;;;;;;;;;11.30;78.10;;;;;;5057837;28;19911;-84
2023/01/07 10:22:56;;;;;;;;;;;11.50;78.00;;;;;;5035277;28;19925;-84
2023/01/07 10:25:26;;;;;;;;;;;11.40;78.40;;;;;;5047765;28;19932;-83
2023/01/07 10:27:53;;;;;;;;;;;11.30;78.40;;;;;;5038572;28;19917;-84
2023/01/07 10:30:23;;;;;;;;;;;11.40;78.10;;;;;;5059110;28;19917;-83
2023/01/07 10:32:51;;;;;;;;;;;11.50;77.90;;;;;;5040772;28;19975;-83
2023/01/07 10:35:20;;;;;;;;;;;11.30;77.80;;;;;;5032314;28;19909;-84
2023/01/07 10:37:45;;;;;;;;;;;11.50;77.80;;;;;;5045849;28;19917;-85
2023/01/07 10:40:11;;;;;;;;;;;11.50;77.70;;;;;;5040066;28;20623;-85
2023/01/07 10:42:47;;;;;;;;;;;11.60;77.20;;;;;;5035795;28;19916;-85
2023/01/07 10:45:34;;;;;;;;;;;11.60;78.00;;;;;;5033609;28;19913;-84
2023/01/07 10:48:00;;;;;;;;;;;11.60;77.20;;;;;;5045503;28;20331;-84
2023/01/07 10:50:41;;;;;;;;;;;11.60;76.60;;;;;;5036866;28;19932;-83
2023/01/07 10:53:15;;;;;;;;;;;11.70;76.60;;;;;;5066024;28;19970;-82
2023/01/07 10:56:04;;;;;;;;;;;11.70;76.40;;;;;;5046694;28;20286;-84
2023/01/07 10:58:33;;;;;;;;;;;11.70;76.50;;;;;;5032347;28;19909;-83
2023/01/07 11:00:58;;;;;;;;;;;11.60;76.00;;;;;;5067061;28;20003;-85
2023/01/07 11:03:24;;;;;;;;;;;11.60;75.90;;;;;;5053206;28;19943;-83
2023/01/07 11:05:53;;;;;;;;;;;11.60;75.80;;;;;;5040647;28;19963;-83
2023/01/07 11:08:31;;;;;;;;;;;11.60;75.70;;;;;;5028437;28;19917;-84
2023/01/07 11:10:57;;;;;;;;;;;11.60;75.40;;;;;;5030382;28;19913;-84
2023/01/07 11:13:27;;;;;;;;;;;11.50;75.60;;;;;;5052081;28;19954;-85
2023/01/07 11:15:55;;;;;;;;;;;11.60;75.40;;;;;;5048361;28;19913;-83
2023/01/07 11:18:29;;;;;;;;;;;11.60;75.10;;;;;;5046943;28;20374;-85
2023/01/07 11:20:56;;;;;;;;;;;11.60;75.40;;;;;;5023912;28;20874;-83
2023/01/07 11:23:38;;;;;;;;;;;11.50;75.40;;;;;;5073241;28;19920;-84
2023/01/07 11:26:06;;;;;;;;;;;11.60;75.20;;;;;;5055805;28;19966;-84
2023/01/07 11:28:32;;;;;;;;;;;11.60;74.00;;;;;;5050301;28;19917;-84
2023/01/07 11:30:58;;;;;;;;;;;11.60;73.70;;;;;;5027209;28;20390;-82
2023/01/07 11:33:26;;;;;;;;;;;11.80;73.80;;;;;;5044807;28;19984;-81
2023/01/07 11:35:55;;;;;;;;;;;11.80;73.60;;;;;;5049512;28;19943;-83
2023/01/07 11:38:31;;;;;;;;;;;11.80;73.90;;;;;;5037142;28;19913;-80
2023/01/07 11:40:58;;;;;;;;;;;11.70;73.50;;;;;;5032390;28;19917;-81
2023/01/07 11:43:24;;;;;;;;;;;11.80;72.60;;;;;;5037616;28;19920;-80
2023/01/07 11:45:52;;;;;;;;;;;11.70;73.10;;;;;;5043522;28;19925;-82
2023/01/07 11:48:17;;;;;;;;;;;11.70;72.50;;;;;;5029605;28;19909;-82
2023/01/07 11:50:54;;;;;;;;;;;11.70;71.90;;;;;;5044721;28;19914;-83
2023/01/07 11:53:46;;;;;;;;;;;11.80;71.40;;;;;;5047595;28;19931;-83
2023/01/07 11:56:20;;;;;;;;;;;12.00;71.30;;;;;;5032216;28;19966;-82
2023/01/07 11:58:50;;;;;;;;;;;12.00;71.00;;;;;;5034580;28;20403;-84
2023/01/07 12:01:20;;;;;;;;;;;12.10;71.10;;;;;;5040916;28;19935;-87
2023/01/07 12:03:52;;;;;;;;;;;12.00;70.10;;;;;;5030911;28;19955;-84
2023/01/07 12:06:31;;;;;;;;;;;12.00;70.20;;;;;;5027208;28;19924;-86
2023/01/07 12:09:06;;;;;;;;;;;12.10;69.90;;;;;;5062994;28;19943;-86
2023/01/07 12:11:32;;;;;;;;;;;12.10;69.90;;;;;;5043202;28;20632;-86
2023/01/07 12:14:01;;;;;;;;;;;12.10;68.60;;;;;;5023787;28;19913;-87
2023/01/07 12:16:27;;;;;;;;;;;12.00;69.60;;;;;;5036064;28;19954;-86
2023/01/07 12:18:56;;;;;;;;;;;12.00;69.40;;;;;;5049677;28;20027;-87
2023/01/07 12:21:32;;;;;;;;;;;12.00;69.70;;;;;;5029760;28;19917;-86
2023/01/07 12:24:08;;;;;;;;;;;12.10;70.10;;;;;;5063148;28;20600;-86
2023/01/07 12:26:46;;;;;;;;;;;12.10;69.40;;;;;;5028785;28;19958;-87
2023/01/07 12:29:15;;;;;;;;;;;12.10;69.40;;;;;;5031597;28;19921;-85
2023/01/07 12:31:46;;;;;;;;;;;11.80;69.40;;;;;;5039958;28;19919;-86
2023/01/07 12:34:17;;;;;;;;;;;11.90;69.70;;;;;;5042784;28;19916;-86
2023/01/07 12:36:51;;;;;;;;;;;12.00;69.50;;;;;;5054842;28;20374;-86
2023/01/07 12:39:28;;;;;;;;;;;12.00;69.30;;;;;;5051841;28;19913;-86
2023/01/07 12:42:01;;;;;;;;;;;12.00;69.70;;;;;;5044648;28;19913;-86
2023/01/07 12:44:26;;;;;;;;;;;12.10;69.30;;;;;;5042726;28;19917;-86
2023/01/07 12:47:04;;;;;;;;;;;12.00;68.80;;;;;;5057394;28;19922;-86
2023/01/07 12:49:42;;;;;;;;;;;12.00;69.50;;;;;;5024274;28;20352;-86
2023/01/07 12:52:33;;;;;;;;;;;12.00;69.40;;;;;;5033445;28;19909;-86
2023/01/07 12:55:02;;;;;;;;;;;12.10;69.80;;;;;;5022250;28;19917;-85
2023/01/07 12:57:29;;;;;;;;;;;12.10;69.10;;;;;;5026277;28;19955;-86
2023/01/07 13:00:00;;;;;;;;;;;12.20;68.50;;;;;;5027389;28;20268;-84
2023/01/07 13:02:38;;;;;;;;;;;12.10;67.90;;;;;;5070583;28;19955;-85
2023/01/07 13:05:09;;;;;;;;;;;12.10;67.90;;;;;;5071700;28;19924;-89
2023/01/07 13:07:41;;;;;;;;;;;12.00;68.80;;;;;;5048049;28;19952;-86
2023/01/07 13:10:22;;;;;;;;;;;12.00;68.50;;;;;;5041614;28;20381;-89
2023/01/07 13:12:48;;;;;;;;;;;12.10;68.00;;;;;;5058113;28;19923;-88
2023/01/07 13:15:19;;;;;;;;;;;12.10;68.00;;;;;;5056669;28;19952;-88
2023/01/07 13:17:46;;;;;;;;;;;12.10;67.70;;;;;;5071494;28;19909;-87
2023/01/07 13:20:13;;;;;;;;;;;12.20;67.50;;;;;;5038789;28;19928;-87
2023/01/07 13:22:42;;;;;;;;;;;12.20;67.90;;;;;;5039184;28;19970;-87
2023/01/07 13:25:27;;;;;;;;;;;12.10;67.90;;;;;;5036176;28;19996;-87
2023/01/07 13:28:01;;;;;;;;;;;12.10;67.60;;;;;;5028215;28;19921;-87
2023/01/07 13:30:38;;;;;;;;;;;12.00;67.50;;;;;;5025853;28;19920;-88
2023/01/07 13:33:08;;;;;;;;;;;11.90;67.70;;;;;;5028700;28;20263;-88
2023/01/07 13:35:37;;;;;;;;;;;11.70;68.00;;;;;;5031446;28;19913;-87
2023/01/07 13:38:21;;;;;;;;;;;11.60;68.70;;;;;;5026769;28;20300;-86
2023/01/07 13:40:52;;;;;;;;;;;11.60;69.00;;;;;;5036201;28;19920;-87
2023/01/07 13:43:28;;;;;;;;;;;11.70;69.20;;;;;;5047146;28;19948;-85
2023/01/07 13:46:03;;;;;;;;;;;11.60;69.00;;;;;;5048605;28;19959;-87
2023/01/07 13:48:29;;;;;;;;;;;11.60;69.60;;;;;;5044316;28;19914;-87
2023/01/07 13:50:59;;;;;;;;;;;11.60;69.10;;;;;;5049991;28;19916;-87
2023/01/07 13:53:24;;;;;;;;;;;11.50;69.30;;;;;;4982132;28;1753849;-85
2023/01/07 13:55:51;;;;;;;;;;;11.50;68.80;;;;;;5049415;28;20388;-87
2023/01/07 13:58:35;;;;;;;;;;;11.50;69.00;;;;;;5055047;28;19923;-87
2023/01/07 14:01:13;;;;;;;;;;;11.60;69.00;;;;;;5028800;28;19913;-86
2023/01/07 14:03:40;;;;;;;;;;;11.50;69.50;;;;;;5043150;28;19916;-87
2023/01/07 14:06:22;;;;;;;;;;;11.50;69.00;;;;;;5039559;28;19920;-87
2023/01/07 14:08:49;;;;;;;;;;;11.50;68.90;;;;;;5030553;28;19936;-89
2023/01/07 14:11:15;;;;;;;;;;;11.50;69.50;;;;;;5030474;28;19913;-87
2023/01/07 14:13:43;;;;;;;;;;;11.50;69.20;;;;;;5019914;28;19913;-90
2023/01/07 14:16:25;;;;;;;;;;;11.50;69.10;;;;;;5036553;28;19920;-85
2023/01/07 14:19:05;;;;;;;;;;;11.60;69.00;;;;;;5028401;28;19978;-85
2023/01/07 14:21:41;;;;;;;;;;;11.50;69.20;;;;;;5037851;28;19912;-84
2023/01/07 14:24:15;;;;;;;;;;;11.40;70.00;;;;;;5050363;28;19924;-88
2023/01/07 14:26:52;;;;;;;;;;;11.40;69.80;;;;;;5047611;28;19912;-85
2023/01/07 14:29:29;;;;;;;;;;;11.40;69.80;;;;;;5027994;28;19921;-85
2023/01/07 14:32:14;;;;;;;;;;;11.40;69.80;;;;;;5066189;28;20394;-85
2023/01/07 14:34:39;;;;;;;;;;;11.30;70.10;;;;;;5039396;28;19970;-87
2023/01/07 14:37:13;;;;;;;;;;;11.30;70.30;;;;;;5026010;28;19913;-86
2023/01/07 14:39:40;;;;;;;;;;;11.40;70.20;;;;;;5023506;28;19964;-87
2023/01/07 14:42:15;;;;;;;;;;;11.30;70.50;;;;;;5038527;28;19927;-84